»·PEaware :: N3421G KICT-KLBF

N3421G :: KICT-KLBF

FLIGHT INFORMATION

Flight Status: Arrived
Operator: Privately registered:
United States
More flights under this callsign
Pilot: Jari J. (4222)
Aircraft: CESSNA 172 SKYHAWK
(C172)
More flights by this aircraft type
Origin: KICT Wichita Mid-Continent
United States
Destination: KLBF North Platte Regl-Bird
United States
More flights between these airports :: More routes between these airports
Route: ICT HYS HLC HCT DCT
File this flight plan on PilotEdge
Remarks: Ferry Flight
Altitude:
(Current/Filed)
8,000ft
Speed:
(Current/Filed)
130kts
Departed: 03-Aug-14 01:20 PM
Arrived: 03-Aug-14 03:33 PM
Distance/Time
Traveled:
258nm/2:13
Distance/Time
To Go:
Arrived

Flight Plot

Page will automatically refresh every two minutes.


Map Options




Map Legend


Flown Route
Filed Route
Departure Airport
Arrival Airport
Navaid (VOR, NDB)
Fix

Horizontal Profiles

Position Reports

Time Latitude Longitude Heading Altitude Ground
Speed
03-Aug-14 12:51 37.651336 -97.427464 62 1336ft 0kts
03-Aug-14 12:52 37.651336 -97.427464 62 1336ft 0kts
03-Aug-14 12:53 37.651336 -97.427464 62 1336ft 0kts
03-Aug-14 12:54 37.651336 -97.427464 62 1336ft 0kts
03-Aug-14 12:55 37.651336 -97.427464 62 1336ft 0kts
03-Aug-14 12:56 37.651336 -97.427464 62 1336ft 0kts
03-Aug-14 12:57 37.651336 -97.427464 62 1336ft 0kts
03-Aug-14 12:58 37.651336 -97.427464 62 1336ft 0kts
03-Aug-14 12:59 37.651336 -97.427464 62 1336ft 0kts
03-Aug-14 13:00 37.651336 -97.427464 62 1336ft 0kts
03-Aug-14 13:01 37.651336 -97.427464 62 1336ft 0kts
03-Aug-14 13:02 37.651336 -97.427464 62 1336ft 0kts
03-Aug-14 13:03 37.651336 -97.427464 62 1336ft 0kts
03-Aug-14 13:04 37.651336 -97.427464 62 1336ft 0kts
03-Aug-14 13:05 37.651336 -97.427464 62 1336ft 0kts
03-Aug-14 13:06 37.651336 -97.427464 62 1336ft 0kts
03-Aug-14 13:07 37.651336 -97.427464 62 1336ft 0kts
03-Aug-14 13:08 37.651336 -97.427464 62 1336ft 0kts
03-Aug-14 13:09 37.651336 -97.427464 62 1336ft 0kts
03-Aug-14 13:10 37.651336 -97.427464 62 1336ft 0kts
03-Aug-14 13:11 37.651336 -97.427464 62 1336ft 0kts
03-Aug-14 13:12 37.651336 -97.427464 62 1336ft 0kts
03-Aug-14 13:13 37.651175 -97.427306 163 1336ft 2kts
03-Aug-14 13:14 37.650419 -97.425833 86 1336ft 4kts
03-Aug-14 13:15 37.652243 -97.424163 21 1336ft 10kts
03-Aug-14 13:16 37.656096 -97.422393 20 1336ft 11kts
03-Aug-14 13:17 37.659820 -97.420425 99 1336ft 12kts
03-Aug-14 13:18 37.659549 -97.419481 111 1336ft 3kts
03-Aug-14 13:19 37.657381 -97.419560 201 1336ft 42kts
03-Aug-14 13:20 37.637867 -97.427866 193 1628ft 81kts
03-Aug-14 13:21 37.615296 -97.433869 189 1816ft 85kts
03-Aug-14 13:22 37.616425 -97.458546 312 2037ft 99kts
03-Aug-14 13:23 37.634022 -97.484427 297 2263ft 96kts
03-Aug-14 13:24 37.652918 -97.508961 315 2488ft 98kts
03-Aug-14 13:25 37.673615 -97.530820 318 2718ft 98kts
03-Aug-14 13:26 37.695187 -97.552616 318 2980ft 100kts
03-Aug-14 13:27 37.718165 -97.572088 323 3362ft 100kts
03-Aug-14 13:28 37.740569 -97.592945 306 3836ft 99kts
03-Aug-14 13:29 37.759677 -97.618251 310 4127ft 99kts
03-Aug-14 13:30 37.780150 -97.642268 309 4581ft 100kts
03-Aug-14 13:31 37.796589 -97.670194 298 5163ft 99kts
03-Aug-14 13:32 37.811396 -97.699770 298 5576ft 99kts
03-Aug-14 13:33 37.826691 -97.729012 306 5851ft 101kts
03-Aug-14 13:34 37.849878 -97.750589 322 6125ft 104kts
03-Aug-14 13:35 37.872489 -97.773202 310 6589ft 104kts
03-Aug-14 13:36 37.893244 -97.798318 312 6901ft 102kts
03-Aug-14 13:37 37.915302 -97.821925 314 7139ft 104kts
03-Aug-14 13:38 37.932375 -97.850740 302 7326ft 103kts
03-Aug-14 13:39 37.949049 -97.880131 296 7494ft 101kts
03-Aug-14 13:40 37.964675 -97.910462 296 7740ft 102kts
03-Aug-14 13:41 37.979042 -97.941730 291 7929ft 101kts
03-Aug-14 13:42 37.991600 -97.975384 285 8240ft 105kts
03-Aug-14 13:43 38.000280 -98.014295 287 8437ft 127kts
03-Aug-14 13:44 38.010977 -98.057917 283 8294ft 128kts
03-Aug-14 13:45 38.024858 -98.101241 297 8292ft 137kts
03-Aug-14 13:46 38.048259 -98.142122 313 8160ft 146kts
03-Aug-14 13:47 38.080285 -98.175040 319 7946ft 147kts
03-Aug-14 13:48 38.112100 -98.205375 322 8099ft 143kts
03-Aug-14 13:49 38.146957 -98.229820 332 8061ft 143kts
03-Aug-14 13:50 38.180816 -98.256550 329 8136ft 145kts
03-Aug-14 13:51 38.216678 -98.281948 324 8081ft 152kts
03-Aug-14 13:52 38.249506 -98.314413 309 8040ft 148kts
03-Aug-14 13:53 38.275864 -98.354395 304 7935ft 146kts
03-Aug-14 13:54 38.300689 -98.395077 307 7953ft 144kts
03-Aug-14 13:55 38.323838 -98.435837 289 8019ft 142kts
03-Aug-14 13:56 38.337902 -98.482191 291 7887ft 140kts
03-Aug-14 13:57 38.355976 -98.526485 294 7962ft 141kts
03-Aug-14 13:58 38.377118 -98.568215 305 7827ft 137kts
03-Aug-14 13:59 38.399289 -98.604362 304 7921ft 124kts
03-Aug-14 14:00 38.422598 -98.638264 310 8248ft 128kts
03-Aug-14 14:01 38.451312 -98.670278 317 8354ft 140kts
03-Aug-14 14:02 38.476444 -98.698294 314 8081ft 143kts
03-Aug-14 14:03 38.509245 -98.740005 311 8093ft 145kts
03-Aug-14 14:04 38.531819 -98.771668 306 8151ft 143kts
03-Aug-14 14:05 38.555686 -98.812327 298 8075ft 142kts
03-Aug-14 14:06 38.576613 -98.855246 300 8096ft 142kts
03-Aug-14 14:07 38.597578 -98.898461 291 8150ft 140kts
03-Aug-14 14:08 38.613456 -98.943811 297 7932ft 140kts
03-Aug-14 14:09 38.640558 -98.979041 329 7842ft 144kts
03-Aug-14 14:10 38.670181 -99.008418 323 7972ft 127kts
03-Aug-14 14:11 38.699862 -99.033984 323 8097ft 140kts
03-Aug-14 14:12 38.729718 -99.068368 305 7982ft 149kts
03-Aug-14 14:13 38.752564 -99.111009 296 7984ft 143kts
03-Aug-14 14:14 38.773858 -99.154133 298 7965ft 143kts
03-Aug-14 14:15 38.794268 -99.197729 298 7957ft 143kts
03-Aug-14 14:16 38.819525 -99.236533 314 7823ft 137kts
03-Aug-14 14:17 38.846950 -99.267519 313 8053ft 135kts
03-Aug-14 14:18 38.868181 -99.307994 287 8010ft 136kts
03-Aug-14 14:19 38.882865 -99.353239 295 8055ft 137kts
03-Aug-14 14:20 38.897903 -99.398367 287 8051ft 136kts
03-Aug-14 14:21 38.912727 -99.443414 296 7983ft 139kts
03-Aug-14 14:22 38.934969 -99.484139 303 7902ft 137kts
03-Aug-14 14:23 38.956986 -99.524005 296 8006ft 138kts
03-Aug-14 14:24 38.976068 -99.567447 292 8090ft 140kts
03-Aug-14 14:25 38.993904 -99.612321 290 8160ft 140kts
03-Aug-14 14:26 39.012123 -99.657432 287 7978ft 135kts
03-Aug-14 14:27 39.026753 -99.701622 287 8133ft 134kts
03-Aug-14 14:28 39.047022 -99.744582 303 8024ft 144kts
03-Aug-14 14:29 39.069431 -99.785777 297 7922ft 141kts
03-Aug-14 14:30 39.089143 -99.829045 290 8001ft 140kts
03-Aug-14 14:31 39.107916 -99.873477 294 8136ft 140kts
03-Aug-14 14:32 39.131965 -99.914597 298 7972ft 144kts
03-Aug-14 14:33 39.150235 -99.958449 284 7833ft 134kts
03-Aug-14 14:34 39.160970 -100.004257 276 7953ft 134kts
03-Aug-14 14:35 39.172648 -100.051007 290 7935ft 144kts
03-Aug-14 14:36 39.194421 -100.094539 302 7992ft 146kts
03-Aug-14 14:37 39.219612 -100.135911 294 8045ft 145kts
03-Aug-14 14:38 39.237360 -100.182099 286 8087ft 143kts
03-Aug-14 14:39 39.251493 -100.229584 305 8115ft 145kts
03-Aug-14 14:40 39.288597 -100.253212 341 8193ft 156kts
03-Aug-14 14:41 39.331350 -100.264719 337 8065ft 161kts
03-Aug-14 14:42 39.372392 -100.287420 331 7869ft 160kts
03-Aug-14 14:43 39.407225 -100.317042 315 7905ft 146kts
03-Aug-14 14:44 39.443875 -100.341695 338 7989ft 150kts
03-Aug-14 14:45 39.485471 -100.351723 335 8056ft 151kts
03-Aug-14 14:46 39.521226 -100.378834 324 8081ft 148kts
03-Aug-14 14:47 39.558186 -100.404625 331 7845ft 148kts
03-Aug-14 14:48 39.597695 -100.423945 336 7841ft 149kts
03-Aug-14 14:49 39.635797 -100.445186 328 7948ft 146kts
03-Aug-14 14:50 39.671782 -100.471200 323 8016ft 148kts
03-Aug-14 14:51 39.708685 -100.496115 329 8078ft 151kts
03-Aug-14 14:52 39.748453 -100.513399 349 8160ft 153kts
03-Aug-14 14:53 39.790667 -100.522335 342 8188ft 158kts
03-Aug-14 14:54 39.825966 -100.552927 316 7920ft 150kts
03-Aug-14 14:55 39.861948 -100.580182 340 7946ft 154kts
03-Aug-14 14:56 39.901903 -100.599395 332 7767ft 152kts
03-Aug-14 14:57 39.939936 -100.617569 344 8074ft 147kts
03-Aug-14 14:58 39.979258 -100.632696 328 7958ft 147kts
03-Aug-14 14:59 40.010830 -100.665828 313 8101ft 147kts
03-Aug-14 15:00 40.044812 -100.698571 336 8075ft 158kts
03-Aug-14 15:01 40.087029 -100.713552 353 8067ft 159kts
03-Aug-14 15:02 40.129847 -100.720616 335 8011ft 155kts
03-Aug-14 15:03 40.165014 -100.749783 330 7896ft 144kts
03-Aug-14 15:04 40.199693 -100.770975 325 8067ft 137kts
03-Aug-14 15:05 40.226161 -100.793398 319 8061ft 137kts
03-Aug-14 15:06 40.258269 -100.821153 326 8072ft 141kts
03-Aug-14 15:07 40.292658 -100.845933 330 8052ft 141kts
03-Aug-14 15:08 40.335472 -100.866824 349 8170ft 143kts
03-Aug-14 15:09 40.369471 -100.874069 353 8113ft 152kts
03-Aug-14 15:10 40.410018 -100.891066 333 7959ft 156kts
03-Aug-14 15:11 40.447150 -100.917778 337 7869ft 140kts
03-Aug-14 15:12 40.483461 -100.908215 26 7931ft 135kts
03-Aug-14 15:13 40.519210 -100.892835 15 7828ft 138kts
03-Aug-14 15:14 40.559746 -100.887028 3 7523ft 155kts
03-Aug-14 15:15 40.603882 -100.885451 4 7110ft 158kts
03-Aug-14 15:16 40.645156 -100.864097 43 6526ft 158kts
03-Aug-14 15:17 40.683284 -100.835669 18 6064ft 155kts
03-Aug-14 15:18 40.723398 -100.823841 8 6037ft 146kts
03-Aug-14 15:19 40.764055 -100.822168 358 6112ft 144kts
03-Aug-14 15:20 40.801770 -100.811816 21 6117ft 137kts
03-Aug-14 15:21 40.836035 -100.785913 31 5894ft 135kts
03-Aug-14 15:22 40.871233 -100.767305 23 5839ft 135kts
03-Aug-14 15:23 40.906737 -100.747496 33 5324ft 144kts
03-Aug-14 15:24 40.940932 -100.722895 32 4996ft 131kts
03-Aug-14 15:25 40.973035 -100.701285 15 4930ft 133kts
03-Aug-14 15:26 41.006029 -100.680866 33 4666ft 135kts
03-Aug-14 15:27 41.038001 -100.657594 19 4550ft 128kts
03-Aug-14 15:28 41.070844 -100.669727 299 4542ft 128kts
03-Aug-14 15:29 41.086592 -100.705789 307 4065ft 96kts
03-Aug-14 15:30 41.107400 -100.694874 11 3238ft 86kts
03-Aug-14 15:31 41.127516 -100.693056 0 2779ft 44kts
03-Aug-14 15:32 41.131089 -100.694751 275 2779ft 7kts
03-Aug-14 15:33 41.131108 -100.695089 280 2779ft 10kts
03-Aug-14 15:34 41.131833 -100.698059 358 2779ft 5kts

Navigation Log

Ident Type
Flight plan parsing failed, navigation log unavailable